Time;durP1;ratioP1;P1;durP2;ratioP2;P2;SDS_P1;SDS_P2;PMS_P1;PMS_P2;Temp;Humidity;BMP_temperature;BMP_pressure;BME280_temperature;BME280_humidity;BME280_pressure;Samples;Min_cycle;Max_cycle;Signal;HPM_P1;HPM_P2
2023/09/01 00:00:41;;;;;;;7.20;6.80;;;17.30;31.40;;;;;;4990790;28;20424;-76
2023/09/01 00:03:07;;;;;;;7.20;6.80;;;17.30;31.40;;;;;;4974039;28;20760;-76
2023/09/01 00:05:33;;;;;;;7.20;6.90;;;17.30;31.00;;;;;;4991851;28;20540;-76
2023/09/01 00:07:59;;;;;;;7.50;6.90;;;17.30;31.20;;;;;;4973312;28;20422;-76
2023/09/01 00:10:24;;;;;;;7.37;6.97;;;17.30;31.40;;;;;;4992560;28;20774;-76
2023/09/01 00:12:50;;;;;;;7.30;7.00;;;17.30;31.20;;;;;;4991310;28;20177;-76
2023/09/01 00:15:15;;;;;;;7.53;7.13;;;17.30;31.10;;;;;;4991375;28;20701;-76
2023/09/01 00:17:41;;;;;;;7.30;7.00;;;17.30;30.90;;;;;;4991408;28;20170;-75
2023/09/01 00:20:07;;;;;;;7.67;7.20;;;17.30;30.90;;;;;;4991606;28;20201;-76
2023/09/01 00:22:32;;;;;;;7.77;7.17;;;17.30;30.80;;;;;;4990032;28;20531;-74
2023/09/01 00:24:58;;;;;;;6.87;6.53;;;17.30;30.80;;;;;;4991165;28;20464;-76
2023/09/01 00:27:23;;;;;;;7.57;7.10;;;17.30;30.70;;;;;;4974083;28;20174;-76
2023/09/01 00:29:49;;;;;;;7.70;7.20;;;17.30;30.60;;;;;;4973125;28;20237;-75
2023/09/01 00:32:15;;;;;;;7.60;6.93;;;17.30;30.70;;;;;;4974224;28;20215;-75
2023/09/01 00:34:40;;;;;;;7.27;6.73;;;17.30;30.40;;;;;;4990608;28;20177;-74
2023/09/01 00:37:05;;;;;;;6.63;6.33;;;17.30;30.80;;;;;;4992070;28;20189;-75
2023/09/01 00:39:31;;;;;;;6.87;6.37;;;17.30;31.10;;;;;;4974199;28;20194;-75
2023/09/01 00:41:56;;;;;;;6.80;6.50;;;17.30;31.40;;;;;;4988522;28;20596;-75
2023/09/01 00:44:22;;;;;;;7.00;6.70;;;17.30;31.30;;;;;;4989052;28;20210;-75
2023/09/01 00:46:48;;;;;;;6.83;6.50;;;17.30;31.30;;;;;;4989158;28;20216;-76
2023/09/01 00:49:17;;;;;;;6.83;6.43;;;17.20;31.20;;;;;;4987917;28;20193;-76
2023/09/01 00:51:46;;;;;;;6.70;6.40;;;17.30;31.10;;;;;;4988375;28;20194;-75
2023/09/01 00:54:12;;;;;;;7.93;7.60;;;17.30;30.60;;;;;;4988877;28;20420;-76
2023/09/01 00:56:38;;;;;;;7.00;6.70;;;17.30;30.50;;;;;;4988837;28;20512;-76
2023/09/01 00:59:04;;;;;;;7.30;6.80;;;17.40;30.30;;;;;;4990439;28;20433;-76
2023/09/01 01:01:30;;;;;;;7.17;6.70;;;17.40;30.30;;;;;;4992014;28;20602;-75
2023/09/01 01:03:55;;;;;;;7.70;7.40;;;17.30;30.20;;;;;;4991744;28;20261;-74
2023/09/01 01:06:21;;;;;;;7.30;6.87;;;17.40;30.00;;;;;;4994928;28;20192;-75
2023/09/01 01:09:16;;;;;;;7.50;7.00;;;17.50;30.00;;;;;;4988811;28;20236;-74
2023/09/01 01:11:44;;;;;;;7.17;6.87;;;17.50;29.90;;;;;;4994654;28;20520;-75
2023/09/01 01:14:23;;;;;;;8.10;7.60;;;17.40;29.90;;;;;;4993191;28;20419;-75
2023/09/01 01:16:51;;;;;;;7.77;7.27;;;17.40;30.00;;;;;;4994929;28;20424;-75
2023/09/01 01:19:31;;;;;;;7.23;6.93;;;17.40;30.00;;;;;;4993102;28;20441;-75
2023/09/01 01:21:59;;;;;;;7.40;7.10;;;17.50;30.00;;;;;;4977069;28;20417;-76
2023/09/01 01:24:26;;;;;;;8.90;7.20;;;17.50;29.90;;;;;;4994724;28;20487;-75
2023/09/01 01:26:52;;;;;;;8.53;7.50;;;17.50;31.10;;;;;;4976248;28;20503;-75
2023/09/01 01:29:18;;;;;;;7.53;7.13;;;17.50;32.90;;;;;;4993054;28;20531;-75
2023/09/01 01:31:44;;;;;;;6.67;6.37;;;17.40;35.10;;;;;;4993573;28;20500;-75
2023/09/01 01:34:41;;;;;;;6.97;6.67;;;17.30;35.30;;;;;;4993864;28;20167;-75
2023/09/01 01:37:16;;;;;;;6.90;6.60;;;17.20;35.70;;;;;;4987455;28;20428;-75
2023/09/01 01:39:43;;;;;;;7.23;6.83;;;17.10;36.60;;;;;;4992271;28;20445;-76
2023/09/01 01:42:13;;;;;;;6.60;6.30;;;17.10;37.50;;;;;;4994147;28;20922;-74
2023/09/01 01:44:42;;;;;;;7.13;6.70;;;17.20;37.80;;;;;;4994052;28;20493;-75
2023/09/01 01:47:09;;;;;;;7.47;7.10;;;17.20;37.90;;;;;;4994001;28;20417;-75
2023/09/01 01:49:34;;;;;;;6.87;6.30;;;17.20;38.50;;;;;;4994303;28;20774;-76
2023/09/01 01:52:00;;;;;;;7.50;7.03;;;17.20;37.20;;;;;;4994774;28;20444;-76
2023/09/01 01:54:26;;;;;;;7.03;6.43;;;17.20;37.90;;;;;;4993520;28;20178;-76
2023/09/01 01:56:52;;;;;;;6.90;6.53;;;17.20;37.80;;;;;;4995188;28;20417;-75
2023/09/01 01:59:17;;;;;;;7.30;6.87;;;17.20;37.80;;;;;;4976355;28;20206;-75
2023/09/01 02:01:43;;;;;;;6.57;6.20;;;17.20;37.00;;;;;;4995443;28;20547;-74
2023/09/01 02:04:08;;;;;;;7.20;6.60;;;17.20;37.90;;;;;;4977565;28;20645;-72
2023/09/01 02:06:34;;;;;;;7.20;6.80;;;17.20;37.80;;;;;;4993914;28;20174;-75
2023/09/01 02:08:59;;;;;;;6.50;6.20;;;17.20;37.70;;;;;;4994366;28;20712;-75
2023/09/01 02:11:25;;;;;;;7.10;6.70;;;17.20;37.90;;;;;;4976738;28;20628;-74
2023/09/01 02:13:50;;;;;;;7.10;6.60;;;17.20;37.80;;;;;;4993971;28;20652;-72
2023/09/01 02:16:17;;;;;;;7.30;6.93;;;17.30;37.30;;;;;;4993515;28;20184;-75
2023/09/01 02:18:42;;;;;;;7.17;6.67;;;17.30;37.90;;;;;;4992347;28;20202;-71
2023/09/01 02:21:08;;;;;;;7.60;7.00;;;17.30;36.90;;;;;;4994174;28;20436;-75
2023/09/01 02:23:33;;;;;;;8.10;7.50;;;17.30;37.70;;;;;;4994125;28;20182;-75
2023/09/01 02:25:59;;;;;;;6.80;6.50;;;17.30;37.40;;;;;;4994473;28;20206;-74
2023/09/01 02:28:25;;;;;;;7.90;7.27;;;17.30;37.90;;;;;;4994020;28;20194;-75
2023/09/01 02:30:51;;;;;;;6.43;6.13;;;17.30;37.90;;;;;;4993098;28;20249;-75
2023/09/01 02:33:18;;;;;;;6.67;6.17;;;17.30;37.90;;;;;;4993042;28;20194;-75
2023/09/01 02:35:44;;;;;;;6.90;6.53;;;17.40;38.00;;;;;;4975724;28;20508;-75
2023/09/01 02:38:13;;;;;;;6.80;6.40;;;17.40;38.00;;;;;;4975506;28;20457;-74
2023/09/01 02:40:39;;;;;;;6.70;6.40;;;17.40;37.70;;;;;;4993239;28;20904;-74
2023/09/01 02:43:05;;;;;;;6.43;6.20;;;17.40;38.00;;;;;;4993486;28;20978;-77
2023/09/01 02:45:31;;;;;;;7.00;6.70;;;17.40;38.00;;;;;;4994043;28;20499;-74
2023/09/01 02:47:57;;;;;;;6.30;6.00;;;17.40;38.00;;;;;;4991717;28;20209;-74
2023/09/01 02:50:22;;;;;;;6.60;6.30;;;17.40;37.90;;;;;;4994012;28;20216;-75
2023/09/01 02:52:48;;;;;;;6.70;6.40;;;17.40;38.00;;;;;;4976623;28;20820;-74
2023/09/01 02:55:17;;;;;;;6.67;6.27;;;17.40;37.50;;;;;;4993168;28;20540;-75
2023/09/01 02:57:46;;;;;;;6.73;6.43;;;17.50;38.10;;;;;;4976766;28;20178;-76
2023/09/01 03:00:17;;;;;;;7.00;6.37;;;17.50;37.90;;;;;;4993026;28;20811;-74
2023/09/01 03:02:44;;;;;;;6.87;6.40;;;17.50;38.10;;;;;;4992980;28;20417;-74
2023/09/01 03:05:10;;;;;;;6.93;6.43;;;17.50;38.10;;;;;;4993582;28;20467;-75
2023/09/01 03:07:37;;;;;;;7.20;6.90;;;17.50;38.10;;;;;;4975717;28;20418;-75
